Randolph, Wisconsin
Current Conditions -  °F | °C
As of 9:35 PM on Friday 24 Oct 2014 (Local Time) from KUNU Reporting Station
Overcast Overcast  
Wind Chill: 54°   Ceiling: 3200
Heat Index: 54°   Visibility: 10mi
Dew Point: 50°   Wind: 3mph
Humidity: 87%   Direction: 190°S
Pressure: 29.92"   Gusts: NA
Location:  43.54°N, 89°W
Report Text: KUNU 250235Z AUTO 19003KT 10SM OVC032 12/10 A2992 RMK AO2 T01210100
Loading
Personal Weather Stations






























Interactive Weather Map
Tropical Storm Tracking
New forecast layout! Learn more

10-Day Weather Forecast

Advertisements
Track Severe Weather on mobile